sensor_id;sensor_type;location;lat;lon;timestamp;temperature;humidity
4505;DHT22;2265;48.794;9.520;2022-08-25T00:57:21;18.70;98.00
4505;DHT22;2265;48.794;9.520;2022-08-25T00:59:50;18.80;98.00
4505;DHT22;2265;48.794;9.520;2022-08-25T01:02:17;18.80;98.00
4505;DHT22;2265;48.794;9.520;2022-08-25T01:04:46;18.70;98.00
4505;DHT22;2265;48.794;9.520;2022-08-25T01:07:14;18.60;98.00
4505;DHT22;2265;48.794;9.520;2022-08-25T01:09:43;18.50;98.00
4505;DHT22;2265;48.794;9.520;2022-08-25T01:12:11;18.50;98.00
4505;DHT22;2265;48.794;9.520;2022-08-25T01:14:40;18.40;98.00
4505;DHT22;2265;48.794;9.520;2022-08-25T01:17:09;18.50;98.00
4505;DHT22;2265;48.794;9.520;2022-08-25T01:19:36;18.50;98.00
4505;DHT22;2265;48.794;9.520;2022-08-25T01:22:04;18.40;98.00
4505;DHT22;2265;48.794;9.520;2022-08-25T01:24:37;18.40;98.00
4505;DHT22;2265;48.794;9.520;2022-08-25T01:27:06;18.30;98.00
4505;DHT22;2265;48.794;9.520;2022-08-25T01:29:33;18.30;98.00
4505;DHT22;2265;48.794;9.520;2022-08-25T01:32:03;18.20;98.00
4505;DHT22;2265;48.794;9.520;2022-08-25T01:34:33;18.20;98.00
4505;DHT22;2265;48.794;9.520;2022-08-25T01:37:01;18.20;98.00
4505;DHT22;2265;48.794;9.520;2022-08-25T01:39:31;18.20;98.00
4505;DHT22;2265;48.794;9.520;2022-08-25T01:42:22;18.20;98.00
4505;DHT22;2265;48.794;9.520;2022-08-25T01:44:50;18.30;98.00
4505;DHT22;2265;48.794;9.520;2022-08-25T01:47:17;18.40;98.00
4505;DHT22;2265;48.794;9.520;2022-08-25T01:49:45;18.50;98.00
4505;DHT22;2265;48.794;9.520;2022-08-25T01:52:15;18.40;98.00
4505;DHT22;2265;48.794;9.520;2022-08-25T01:54:46;18.30;98.00
4505;DHT22;2265;48.794;9.520;2022-08-25T01:57:13;18.20;98.00
4505;DHT22;2265;48.794;9.520;2022-08-25T01:59:41;18.20;98.00
4505;DHT22;2265;48.794;9.520;2022-08-25T02:02:08;18.20;98.00
4505;DHT22;2265;48.794;9.520;2022-08-25T02:04:35;18.20;98.00
4505;DHT22;2265;48.794;9.520;2022-08-25T02:07:04;18.00;98.00
4505;DHT22;2265;48.794;9.520;2022-08-25T02:09:33;17.90;98.00
4505;DHT22;2265;48.794;9.520;2022-08-25T02:12:02;18.10;98.00
4505;DHT22;2265;48.794;9.520;2022-08-25T02:14:29;18.10;98.00
4505;DHT22;2265;48.794;9.520;2022-08-25T02:16:56;18.00;98.00
4505;DHT22;2265;48.794;9.520;2022-08-25T02:19:24;17.80;98.00
4505;DHT22;2265;48.794;9.520;2022-08-25T02:21:52;17.80;98.00
4505;DHT22;2265;48.794;9.520;2022-08-25T02:24:20;17.70;98.00
4505;DHT22;2265;48.794;9.520;2022-08-25T02:26:47;17.80;98.00
4505;DHT22;2265;48.794;9.520;2022-08-25T02:29:16;17.70;98.00
4505;DHT22;2265;48.794;9.520;2022-08-25T02:31:44;17.80;98.00
4505;DHT22;2265;48.794;9.520;2022-08-25T02:34:11;17.90;98.00
4505;DHT22;2265;48.794;9.520;2022-08-25T02:36:40;17.90;98.00
4505;DHT22;2265;48.794;9.520;2022-08-25T02:39:08;17.80;98.00
4505;DHT22;2265;48.794;9.520;2022-08-25T02:41:36;17.80;98.00
4505;DHT22;2265;48.794;9.520;2022-08-25T02:44:07;17.80;98.00
4505;DHT22;2265;48.794;9.520;2022-08-25T02:46:37;17.90;98.00
4505;DHT22;2265;48.794;9.520;2022-08-25T02:49:04;17.90;98.00
4505;DHT22;2265;48.794;9.520;2022-08-25T02:51:32;17.90;98.00
4505;DHT22;2265;48.794;9.520;2022-08-25T02:54:00;17.90;98.00
4505;DHT22;2265;48.794;9.520;2022-08-25T02:56:29;17.80;98.00
4505;DHT22;2265;48.794;9.520;2022-08-25T02:58:57;17.80;98.00
4505;DHT22;2265;48.794;9.520;2022-08-25T03:01:24;17.70;98.00
4505;DHT22;2265;48.794;9.520;2022-08-25T03:03:53;17.80;98.00
4505;DHT22;2265;48.794;9.520;2022-08-25T03:06:21;17.80;98.00
4505;DHT22;2265;48.794;9.520;2022-08-25T03:08:49;17.80;98.00
4505;DHT22;2265;48.794;9.520;2022-08-25T03:11:17;17.80;98.00
4505;DHT22;2265;48.794;9.520;2022-08-25T03:13:45;17.70;98.00
4505;DHT22;2265;48.794;9.520;2022-08-25T03:16:13;17.70;98.00
4505;DHT22;2265;48.794;9.520;2022-08-25T03:18:41;17.50;98.00
4505;DHT22;2265;48.794;9.520;2022-08-25T03:21:10;17.50;98.00
4505;DHT22;2265;48.794;9.520;2022-08-25T03:23:38;17.60;98.00
4505;DHT22;2265;48.794;9.520;2022-08-25T03:26:06;17.50;98.00
4505;DHT22;2265;48.794;9.520;2022-08-25T03:28:51;17.40;98.00
4505;DHT22;2265;48.794;9.520;2022-08-25T03:31:20;17.40;98.00
4505;DHT22;2265;48.794;9.520;2022-08-25T03:33:47;17.30;98.00
4505;DHT22;2265;48.794;9.520;2022-08-25T03:36:16;17.20;98.00
4505;DHT22;2265;48.794;9.520;2022-08-25T03:38:43;17.10;98.00
4505;DHT22;2265;48.794;9.520;2022-08-25T03:41:13;17.10;98.00
4505;DHT22;2265;48.794;9.520;2022-08-25T03:43:41;17.10;98.00
4505;DHT22;2265;48.794;9.520;2022-08-25T03:46:08;17.20;98.00
4505;DHT22;2265;48.794;9.520;2022-08-25T03:48:41;17.30;98.00
4505;DHT22;2265;48.794;9.520;2022-08-25T03:51:08;17.40;98.00
4505;DHT22;2265;48.794;9.520;2022-08-25T03:53:37;17.50;98.00
4505;DHT22;2265;48.794;9.520;2022-08-25T03:56:04;17.50;98.00
4505;DHT22;2265;48.794;9.520;2022-08-25T03:58:31;17.60;98.00
4505;DHT22;2265;48.794;9.520;2022-08-25T04:00:59;17.40;98.00
4505;DHT22;2265;48.794;9.520;2022-08-25T04:03:26;17.40;98.00
4505;DHT22;2265;48.794;9.520;2022-08-25T04:05:53;17.40;98.00
4505;DHT22;2265;48.794;9.520;2022-08-25T04:08:20;17.40;98.00
4505;DHT22;2265;48.794;9.520;2022-08-25T04:10:49;17.30;98.00
4505;DHT22;2265;48.794;9.520;2022-08-25T04:13:16;17.40;98.00
4505;DHT22;2265;48.794;9.520;2022-08-25T04:15:44;17.50;98.00
4505;DHT22;2265;48.794;9.520;2022-08-25T04:18:11;17.50;98.00
4505;DHT22;2265;48.794;9.520;2022-08-25T04:20:38;17.50;98.00
4505;DHT22;2265;48.794;9.520;2022-08-25T04:23:06;17.30;98.00
4505;DHT22;2265;48.794;9.520;2022-08-25T04:25:34;17.20;98.00
4505;DHT22;2265;48.794;9.520;2022-08-25T04:28:03;17.20;98.00
4505;DHT22;2265;48.794;9.520;2022-08-25T04:30:30;17.20;98.00
4505;DHT22;2265;48.794;9.520;2022-08-25T04:32:57;17.20;98.00
4505;DHT22;2265;48.794;9.520;2022-08-25T04:35:24;17.20;98.00
4505;DHT22;2265;48.794;9.520;2022-08-25T04:37:51;17.20;98.00
4505;DHT22;2265;48.794;9.520;2022-08-25T04:40:18;17.20;98.00
4505;DHT22;2265;48.794;9.520;2022-08-25T04:42:45;17.30;98.00
4505;DHT22;2265;48.794;9.520;2022-08-25T04:45:14;17.20;98.00
4505;DHT22;2265;48.794;9.520;2022-08-25T04:47:41;17.10;98.00
4505;DHT22;2265;48.794;9.520;2022-08-25T04:50:09;17.10;98.00
4505;DHT22;2265;48.794;9.520;2022-08-25T04:52:36;17.10;98.00
4505;DHT22;2265;48.794;9.520;2022-08-25T04:55:03;17.10;98.00
4505;DHT22;2265;48.794;9.520;2022-08-25T04:57:30;17.00;98.00
4505;DHT22;2265;48.794;9.520;2022-08-25T04:59:57;17.10;98.00
4505;DHT22;2265;48.794;9.520;2022-08-25T05:02:26;17.20;98.00
4505;DHT22;2265;48.794;9.520;2022-08-25T05:04:54;17.30;98.00
4505;DHT22;2265;48.794;9.520;2022-08-25T05:07:21;17.60;98.00
4505;DHT22;2265;48.794;9.520;2022-08-25T05:09:48;17.40;98.00
4505;DHT22;2265;48.794;9.520;2022-08-25T05:12:15;17.30;98.00
4505;DHT22;2265;48.794;9.520;2022-08-25T05:14:42;17.20;98.00
4505;DHT22;2265;48.794;9.520;2022-08-25T05:17:09;17.10;98.00
4505;DHT22;2265;48.794;9.520;2022-08-25T05:19:38;17.10;98.00
4505;DHT22;2265;48.794;9.520;2022-08-25T05:22:05;17.20;98.00
4505;DHT22;2265;48.794;9.520;2022-08-25T05:24:32;17.40;98.00
4505;DHT22;2265;48.794;9.520;2022-08-25T05:26:59;17.30;98.00
4505;DHT22;2265;48.794;9.520;2022-08-25T05:29:28;17.20;98.00
4505;DHT22;2265;48.794;9.520;2022-08-25T05:31:55;17.30;98.00
4505;DHT22;2265;48.794;9.520;2022-08-25T05:34:25;17.30;98.00
4505;DHT22;2265;48.794;9.520;2022-08-25T05:36:54;17.20;98.00
4505;DHT22;2265;48.794;9.520;2022-08-25T05:39:24;17.20;98.00
4505;DHT22;2265;48.794;9.520;2022-08-25T05:41:51;17.20;98.00
4505;DHT22;2265;48.794;9.520;2022-08-25T05:44:18;17.30;98.00
4505;DHT22;2265;48.794;9.520;2022-08-25T05:46:45;17.30;98.00
4505;DHT22;2265;48.794;9.520;2022-08-25T05:49:13;17.40;98.00
4505;DHT22;2265;48.794;9.520;2022-08-25T05:51:40;17.40;98.00
4505;DHT22;2265;48.794;9.520;2022-08-25T05:54:08;17.60;98.00
4505;DHT22;2265;48.794;9.520;2022-08-25T05:56:35;17.90;98.00
4505;DHT22;2265;48.794;9.520;2022-08-25T05:59:03;18.00;98.00
4505;DHT22;2265;48.794;9.520;2022-08-25T06:01:30;18.00;98.00
4505;DHT22;2265;48.794;9.520;2022-08-25T06:04:15;18.30;98.00
4505;DHT22;2265;48.794;9.520;2022-08-25T06:06:42;18.30;98.00
4505;DHT22;2265;48.794;9.520;2022-08-25T06:09:11;18.40;98.00
4505;DHT22;2265;48.794;9.520;2022-08-25T06:11:39;18.40;98.00
4505;DHT22;2265;48.794;9.520;2022-08-25T06:14:08;18.40;98.00
4505;DHT22;2265;48.794;9.520;2022-08-25T06:16:37;18.40;98.00
4505;DHT22;2265;48.794;9.520;2022-08-25T06:19:04;18.50;98.00
4505;DHT22;2265;48.794;9.520;2022-08-25T06:21:32;18.60;98.00
4505;DHT22;2265;48.794;9.520;2022-08-25T06:23:59;18.70;98.00
4505;DHT22;2265;48.794;9.520;2022-08-25T06:26:27;18.70;98.00
4505;DHT22;2265;48.794;9.520;2022-08-25T06:28:54;18.90;98.00
4505;DHT22;2265;48.794;9.520;2022-08-25T06:31:22;19.10;98.00
4505;DHT22;2265;48.794;9.520;2022-08-25T06:33:50;19.20;98.00
4505;DHT22;2265;48.794;9.520;2022-08-25T06:36:18;19.10;98.00
4505;DHT22;2265;48.794;9.520;2022-08-25T06:38:45;19.30;98.00
4505;DHT22;2265;48.794;9.520;2022-08-25T06:41:13;19.30;98.00
4505;DHT22;2265;48.794;9.520;2022-08-25T06:43:42;19.30;98.00
4505;DHT22;2265;48.794;9.520;2022-08-25T06:46:10;19.40;98.00
4505;DHT22;2265;48.794;9.520;2022-08-25T06:48:38;19.50;98.00
4505;DHT22;2265;48.794;9.520;2022-08-25T06:51:07;19.60;98.00
4505;DHT22;2265;48.794;9.520;2022-08-25T06:53:38;19.70;98.00
